HTKJ Airport Information

Runway Information
Runway 09 Length 11834 ft width 148 ft
Elevation 2932 ft Threshold 0 ft Heading 87
Runway 27 Length 11834 ft Width 148 ft
Elevation 2902 ft Threshold 0 ft Heading 267
Airport Frequencies
Type APP Name APP Frequency 120.1 MHZ
Type ATIS Name ATIS Frequency 126.6 MHZ
Type TWR Name TWR Frequency 120.1 MHZ
Airport Navaids
Type NDB Name Kilimanjaro Frequency 293 KHZ
Type NDB Name Kilimanjaro Frequency 283 KHZ
Type NDB Name Kilimanjaro Frequency 298 KHZ
Type VOR-DME Name Kilimanjaro Frequency 115300 KHZ
Airport Weather Information & NOTAM
ADDS - METARS form results

(2110 UTC 23 October 2018)
Data provider http://aviationweather.gov/metar/data/
 
Forecast for: HTKJ (KILIMANJARO AIRP, TZ)
Text: TAF HTKJ 231100Z 2312/2412 09010KT 9999 BKN026 BKN080
Forecast period: 1200 UTC 23 October 2018 to 1200 UTC 24 October 2018
Forecast type: FROM: standard forecast or significant change
Winds: from the E (90 degrees) at 12 MPH (10 knots; 5.1 m/s)
Visibility: 6 or more miles 10+ km)
Ceiling: 2600 feet AGL
Clouds: broken clouds at 2600 feet AGL
broken clouds at 8000 feet AGL
Weather: no significant weather forecast for this period
Text: TEMPO 2312/2317 -RA
Forecast period: 1200 to 1700 UTC 23 October 2018
Forecast type: TEMPORARY: The following changes expected for less than half the time period
Visibility: missing
Ceiling: unknown
Clouds: missing
Weather: -RA  (light rain)